createdAt,value
2019-05-31T00:02:18.308Z,17.60
2019-05-31T00:04:45.622Z,17.50
2019-05-31T00:07:12.893Z,18.87
2019-05-31T00:09:40.168Z,19.10
2019-05-31T00:12:07.625Z,17.50
2019-05-31T00:14:34.900Z,17.57
2019-05-31T00:17:03.310Z,17.60
2019-05-31T00:19:30.777Z,15.93
2019-05-31T00:21:58.238Z,16.97
2019-05-31T00:24:25.565Z,17.33
2019-05-31T00:26:54.308Z,17.97
2019-05-31T00:29:21.700Z,18.63
2019-05-31T00:31:48.988Z,16.70
2019-05-31T00:34:16.361Z,17.93
2019-05-31T00:36:43.644Z,16.87
2019-05-31T00:39:10.930Z,17.80
2019-05-31T00:41:38.306Z,18.40
2019-05-31T00:44:05.700Z,23.50
2019-05-31T00:46:33.028Z,18.30
2019-05-31T00:49:01.453Z,18.87
2019-05-31T00:51:29.101Z,18.23
2019-05-31T00:53:56.379Z,17.50
2019-05-31T00:56:23.672Z,17.80
2019-05-31T00:58:50.954Z,17.73
2019-05-31T01:01:18.225Z,18.53
2019-05-31T01:03:45.527Z,17.90
2019-05-31T01:06:12.801Z,17.90
2019-05-31T01:08:40.079Z,16.90
2019-05-31T01:11:07.859Z,16.50
2019-05-31T01:13:35.229Z,17.70
2019-05-31T01:16:02.589Z,17.77
2019-05-31T01:18:29.944Z,16.40
2019-05-31T01:20:58.516Z,17.17
2019-05-31T01:23:25.885Z,16.10
2019-05-31T01:25:53.201Z,17.73
2019-05-31T01:28:20.480Z,18.03
2019-05-31T01:30:47.924Z,16.97
2019-05-31T01:33:15.225Z,18.13
2019-05-31T01:35:42.572Z,17.17
2019-05-31T01:38:10.590Z,18.33
2019-05-31T01:40:38.049Z,18.00
2019-05-31T01:43:05.337Z,19.13
2019-05-31T01:45:32.609Z,19.27
2019-05-31T01:48:01.413Z,16.93
2019-05-31T01:50:28.974Z,17.97
2019-05-31T01:52:56.257Z,21.43
2019-05-31T01:55:23.648Z,18.80
2019-05-31T01:57:51.000Z,18.97
2019-05-31T02:00:18.337Z,19.57
2019-05-31T02:02:45.633Z,19.00
2019-05-31T02:05:13.880Z,18.63
2019-05-31T02:07:41.161Z,18.40
2019-05-31T02:10:09.209Z,19.10
2019-05-31T02:12:36.481Z,19.83
2019-05-31T02:15:05.410Z,18.13
2019-05-31T02:17:32.777Z,20.20
2019-05-31T02:20:00.052Z,18.60
2019-05-31T02:22:27.321Z,20.83
2019-05-31T02:24:54.640Z,19.27
2019-05-31T02:27:21.970Z,18.23
2019-05-31T02:29:49.247Z,18.00
2019-05-31T02:32:18.056Z,20.17
2019-05-31T02:34:45.605Z,20.20
2019-05-31T02:37:15.221Z,19.17
2019-05-31T02:39:42.244Z,19.93
2019-05-31T02:42:11.279Z,18.63
2019-05-31T02:44:38.722Z,19.80
2019-05-31T02:47:07.367Z,20.50
2019-05-31T02:49:34.797Z,19.10
2019-05-31T02:52:02.168Z,18.33
2019-05-31T02:54:29.597Z,19.73
2019-05-31T02:56:57.254Z,20.10
2019-05-31T02:59:25.699Z,21.20
2019-05-31T03:01:53.850Z,19.30
2019-05-31T03:04:22.679Z,21.40
2019-05-31T03:06:51.653Z,20.30
2019-05-31T03:09:20.625Z,19.73
2019-05-31T03:11:48.750Z,20.53
2019-05-31T03:14:18.992Z,19.90
2019-05-31T03:16:48.034Z,23.57
2019-05-31T03:19:15.634Z,21.87
2019-05-31T03:21:43.002Z,23.43
2019-05-31T03:24:11.959Z,23.03
2019-05-31T03:26:39.365Z,22.10
2019-05-31T03:29:06.640Z,21.17
2019-05-31T03:31:35.938Z,23.10
2019-05-31T03:34:02.954Z,21.50
2019-05-31T03:36:35.940Z,22.87
2019-05-31T03:38:59.232Z,22.80
2019-05-31T03:41:26.855Z,21.33
2019-05-31T03:43:54.246Z,23.13
2019-05-31T03:46:34.761Z,19.47
2019-05-31T03:48:50.554Z,19.53
2019-05-31T03:51:18.900Z,18.50
2019-05-31T03:53:46.839Z,19.87
2019-05-31T03:56:15.076Z,20.67
2019-05-31T03:58:42.521Z,20.83
2019-05-31T04:01:09.800Z,21.47
2019-05-31T04:03:37.125Z,21.67
2019-05-31T04:06:04.474Z,21.43
2019-05-31T04:08:31.748Z,21.73
2019-05-31T04:10:59.066Z,21.03
2019-05-31T04:13:27.605Z,20.27
2019-05-31T04:15:55.199Z,21.20
2019-05-31T04:18:29.890Z,20.73
2019-05-31T04:20:51.502Z,20.67
2019-05-31T04:23:19.971Z,23.37
2019-05-31T04:25:47.856Z,21.93
2019-05-31T04:28:15.999Z,21.03
2019-05-31T04:30:43.990Z,22.03
2019-05-31T04:33:11.273Z,22.20
2019-05-31T04:35:38.620Z,20.47
2019-05-31T04:38:06.064Z,22.40
2019-05-31T04:40:33.349Z,20.33
2019-05-31T04:43:00.630Z,21.43
2019-05-31T04:45:27.913Z,19.20
2019-05-31T04:47:55.201Z,19.43
2019-05-31T04:50:24.529Z,18.67
2019-05-31T04:52:51.514Z,19.77
2019-05-31T04:55:19.953Z,18.27
2019-05-31T04:57:47.386Z,18.40
2019-05-31T05:00:16.825Z,18.23
2019-05-31T05:02:43.806Z,18.90
2019-05-31T05:05:11.107Z,18.90
2019-05-31T05:07:38.382Z,19.67
2019-05-31T05:10:06.131Z,19.13
2019-05-31T05:12:33.501Z,19.40
2019-05-31T05:15:00.774Z,21.47
2019-05-31T05:17:40.049Z,20.70
2019-05-31T05:19:57.133Z,19.20
2019-05-31T05:22:24.828Z,20.90
2019-05-31T05:24:52.276Z,21.20
2019-05-31T05:27:19.808Z,20.37
2019-05-31T05:29:47.080Z,21.47
2019-05-31T05:32:14.365Z,24.27
2019-05-31T05:34:41.680Z,22.80
2019-05-31T05:37:08.962Z,22.43
2019-05-31T05:39:36.239Z,23.20
2019-05-31T05:42:04.560Z,23.60
2019-05-31T05:44:31.839Z,21.90
2019-05-31T05:46:59.122Z,25.67
2019-05-31T05:49:27.707Z,21.70
2019-05-31T05:51:55.185Z,22.50
2019-05-31T05:54:22.483Z,23.17
2019-05-31T05:56:49.845Z,22.20
2019-05-31T05:59:17.117Z,22.87
2019-05-31T06:01:44.401Z,21.27
2019-05-31T06:04:11.720Z,19.93
2019-05-31T06:06:38.994Z,20.33
2019-05-31T06:09:07.604Z,21.50
2019-05-31T06:11:34.933Z,25.17
2019-05-31T06:14:02.304Z,22.87
2019-05-31T06:16:46.453Z,23.50
2019-05-31T06:18:58.658Z,20.80
2019-05-31T06:21:26.405Z,20.50
2019-05-31T06:23:53.794Z,20.53
2019-05-31T06:26:21.125Z,19.77
2019-05-31T06:28:48.401Z,20.13
2019-05-31T06:31:15.678Z,19.33
2019-05-31T06:33:43.014Z,22.23
2019-05-31T06:36:10.382Z,20.93
2019-05-31T06:38:37.698Z,21.00
2019-05-31T06:41:05.085Z,19.37
2019-05-31T06:43:35.225Z,19.90
2019-05-31T06:46:02.999Z,20.93
2019-05-31T06:48:31.657Z,19.67
2019-05-31T06:50:59.137Z,21.57
2019-05-31T06:53:27.252Z,19.40
2019-05-31T06:55:54.786Z,19.43
2019-05-31T06:58:22.057Z,16.63
2019-05-31T07:00:49.325Z,17.17
2019-05-31T07:03:16.713Z,17.87
2019-05-31T07:05:55.983Z,15.63
2019-05-31T07:08:13.011Z,16.50
2019-05-31T07:10:40.376Z,16.70
2019-05-31T07:13:07.653Z,17.33
2019-05-31T07:15:36.762Z,15.60
2019-05-31T07:18:04.025Z,15.97
2019-05-31T07:20:32.250Z,15.97
2019-05-31T07:22:59.672Z,17.27
2019-05-31T07:25:27.064Z,15.27
2019-05-31T07:27:54.420Z,13.80
2019-05-31T07:30:21.772Z,13.70
2019-05-31T07:32:49.157Z,12.53
2019-05-31T07:35:16.496Z,13.00
2019-05-31T07:37:43.768Z,13.80
2019-05-31T07:40:11.305Z,14.37
2019-05-31T07:42:39.204Z,13.13
2019-05-31T07:45:07.790Z,12.93
2019-05-31T07:47:35.623Z,12.50
2019-05-31T07:50:03.314Z,11.33
2019-05-31T07:52:30.582Z,12.17
2019-05-31T07:54:57.888Z,12.90
2019-05-31T07:57:25.433Z,12.20
2019-05-31T07:59:52.770Z,11.73
2019-05-31T08:02:20.093Z,11.63
2019-05-31T08:04:47.365Z,11.43
2019-05-31T08:07:14.649Z,10.60
2019-05-31T08:09:42.025Z,10.77
2019-05-31T08:12:09.298Z,11.73
2019-05-31T08:14:36.568Z,11.60
2019-05-31T08:17:03.885Z,11.40
2019-05-31T08:19:31.447Z,10.70
2019-05-31T08:21:58.902Z,9.40
2019-05-31T08:24:26.281Z,10.03
2019-05-31T08:26:53.544Z,12.23
2019-05-31T08:29:20.809Z,9.47
2019-05-31T08:31:48.152Z,8.50
2019-05-31T08:34:15.560Z,8.17
2019-05-31T08:36:42.956Z,8.40
2019-05-31T08:39:10.365Z,6.80
2019-05-31T08:41:37.729Z,5.37
2019-05-31T08:44:05.369Z,5.50
2019-05-31T08:46:33.599Z,6.40
2019-05-31T08:49:00.923Z,5.17
2019-05-31T08:51:29.120Z,4.63
2019-05-31T08:53:56.840Z,4.53
2019-05-31T08:56:24.104Z,4.80
2019-05-31T08:58:51.372Z,5.50
2019-05-31T09:01:18.677Z,4.93
2019-05-31T09:03:45.953Z,4.80
2019-05-31T09:06:13.222Z,5.67
2019-05-31T09:08:40.525Z,4.70
2019-05-31T09:11:07.780Z,4.20
2019-05-31T09:13:36.413Z,4.47
2019-05-31T09:16:04.335Z,4.57
2019-05-31T09:18:32.857Z,4.30
2019-05-31T09:21:00.740Z,5.03
2019-05-31T09:23:28.350Z,4.30
2019-05-31T09:25:55.622Z,3.10
2019-05-31T09:28:22.901Z,4.73
2019-05-31T09:30:50.192Z,3.43
2019-05-31T09:33:17.460Z,2.70
2019-05-31T09:35:44.753Z,3.33
2019-05-31T09:38:12.047Z,3.23
2019-05-31T09:40:39.395Z,3.10
2019-05-31T09:43:19.243Z,3.60
2019-05-31T09:45:37.037Z,3.03
2019-05-31T09:48:04.879Z,3.60
2019-05-31T09:50:32.768Z,5.50
2019-05-31T09:53:01.285Z,2.90
2019-05-31T09:55:28.555Z,2.93
2019-05-31T09:57:55.824Z,5.77
2019-05-31T10:00:23.358Z,2.97
2019-05-31T10:02:50.625Z,3.53
2019-05-31T10:05:18.246Z,3.37
2019-05-31T10:07:45.533Z,2.73
2019-05-31T10:10:13.254Z,3.00
2019-05-31T10:12:41.078Z,6.50
2019-05-31T10:15:09.140Z,3.00
2019-05-31T10:17:37.963Z,3.13
2019-05-31T10:20:06.364Z,3.23
2019-05-31T10:22:34.613Z,3.10
2019-05-31T10:25:03.237Z,2.73
2019-05-31T10:27:30.578Z,4.53
2019-05-31T10:29:57.908Z,2.60
2019-05-31T10:32:25.198Z,2.57
2019-05-31T10:34:52.462Z,4.43
2019-05-31T10:37:19.744Z,3.27
2019-05-31T10:39:47.078Z,2.80
2019-05-31T10:42:19.875Z,2.87
2019-05-31T10:44:44.399Z,3.17
2019-05-31T10:47:11.788Z,2.30
2019-05-31T10:49:40.140Z,4.10
2019-05-31T10:52:07.596Z,5.83
2019-05-31T10:54:36.354Z,3.73
2019-05-31T10:57:03.856Z,2.87
2019-05-31T10:59:31.173Z,4.87
2019-05-31T11:01:58.572Z,6.40
2019-05-31T11:04:25.922Z,2.90
2019-05-31T11:06:53.322Z,2.77
2019-05-31T11:09:20.652Z,7.30
2019-05-31T11:11:47.916Z,2.87
2019-05-31T11:14:15.231Z,4.03
2019-05-31T11:16:43.671Z,2.57
2019-05-31T11:19:11.265Z,3.60
2019-05-31T11:21:39.410Z,2.83
2019-05-31T11:24:06.704Z,5.10
2019-05-31T11:26:34.046Z,2.37
2019-05-31T11:29:01.349Z,3.70
2019-05-31T11:31:28.618Z,3.50
2019-05-31T11:33:55.890Z,2.67
2019-05-31T11:36:23.235Z,2.60
2019-05-31T11:38:50.502Z,3.50
2019-05-31T11:41:17.806Z,2.30
2019-05-31T11:43:45.258Z,2.80
2019-05-31T11:46:12.735Z,2.90
2019-05-31T11:48:41.171Z,3.53
2019-05-31T11:51:27.476Z,3.17
2019-05-31T11:53:43.084Z,2.90
2019-05-31T11:56:06.674Z,2.90
2019-05-31T11:58:33.949Z,3.00
2019-05-31T12:01:01.229Z,2.87
2019-05-31T12:03:28.608Z,3.53
2019-05-31T12:05:55.890Z,2.40
2019-05-31T12:08:23.161Z,2.47
2019-05-31T12:10:50.539Z,2.43
2019-05-31T12:13:17.803Z,2.47
2019-05-31T12:15:46.577Z,2.20
2019-05-31T12:18:14.201Z,2.90
2019-05-31T12:20:42.768Z,2.30
2019-05-31T12:23:10.264Z,2.83
2019-05-31T12:25:38.717Z,2.40
2019-05-31T12:28:06.134Z,5.90
2019-05-31T12:30:33.401Z,4.67
2019-05-31T12:33:00.794Z,2.60
2019-05-31T12:35:28.071Z,3.77
2019-05-31T12:37:55.423Z,3.07
2019-05-31T12:40:22.886Z,2.50
2019-05-31T12:42:52.093Z,3.63
2019-05-31T12:45:19.178Z,2.50
2019-05-31T12:47:51.913Z,4.30
2019-05-31T12:50:18.026Z,2.47
2019-05-31T12:52:45.233Z,3.63
2019-05-31T12:55:13.149Z,2.60
2019-05-31T12:57:40.837Z,2.80
2019-05-31T13:00:09.397Z,3.90
2019-05-31T13:02:36.766Z,2.57
2019-05-31T13:05:05.409Z,2.70
2019-05-31T13:07:32.689Z,2.80
2019-05-31T13:09:59.984Z,5.00
2019-05-31T13:12:27.257Z,2.90
2019-05-31T13:14:54.516Z,2.57
2019-05-31T13:17:21.793Z,2.53
2019-05-31T13:19:49.889Z,4.30
2019-05-31T13:22:22.649Z,3.33
2019-05-31T13:24:46.356Z,2.30
2019-05-31T13:27:13.629Z,2.60
2019-05-31T13:29:40.918Z,4.20
2019-05-31T13:32:08.184Z,5.43
2019-05-31T13:34:35.449Z,2.60
2019-05-31T13:37:02.761Z,2.33
2019-05-31T13:39:30.023Z,2.93
2019-05-31T13:41:57.289Z,2.33
2019-05-31T13:44:25.008Z,3.00
2019-05-31T13:46:52.272Z,3.40
2019-05-31T13:49:19.573Z,2.87
2019-05-31T13:51:48.487Z,2.90
2019-05-31T13:54:15.994Z,2.70
2019-05-31T13:56:43.269Z,3.23
2019-05-31T13:59:11.958Z,2.43
2019-05-31T14:01:39.445Z,2.50
2019-05-31T14:04:06.709Z,4.23
2019-05-31T14:06:33.997Z,4.70
2019-05-31T14:09:01.273Z,3.13
2019-05-31T14:11:28.561Z,3.53
2019-05-31T14:13:56.657Z,7.30
2019-05-31T14:16:23.973Z,2.77
2019-05-31T14:18:52.488Z,3.80
2019-05-31T14:21:20.012Z,3.00
2019-05-31T14:23:47.289Z,3.40
2019-05-31T14:26:14.573Z,2.70
2019-05-31T14:28:43.080Z,3.00
2019-05-31T14:31:10.485Z,2.50
2019-05-31T14:33:37.753Z,4.40
2019-05-31T14:36:05.140Z,3.10
2019-05-31T14:38:32.428Z,4.23
2019-05-31T14:40:59.763Z,3.10
2019-05-31T14:43:27.146Z,4.10
2019-05-31T14:45:54.573Z,2.53
2019-05-31T14:48:21.849Z,3.00
2019-05-31T14:50:49.921Z,4.63
2019-05-31T14:53:20.451Z,3.40
2019-05-31T14:55:46.308Z,2.83
2019-05-31T14:58:13.580Z,3.30
2019-05-31T15:00:41.290Z,2.77
2019-05-31T15:03:08.849Z,2.70
2019-05-31T15:05:36.392Z,2.97
2019-05-31T15:08:04.744Z,4.00
2019-05-31T15:10:33.653Z,2.87
2019-05-31T15:13:19.546Z,2.90
2019-05-31T15:15:30.065Z,5.27
2019-05-31T15:17:58.258Z,2.43
2019-05-31T15:20:25.686Z,2.80
2019-05-31T15:22:52.976Z,2.80
2019-05-31T15:25:20.329Z,2.80
2019-05-31T15:27:47.626Z,2.97
2019-05-31T15:30:31.789Z,2.70
2019-05-31T15:33:06.712Z,3.00
2019-05-31T15:35:53.542Z,2.83
2019-05-31T15:38:21.042Z,2.67
2019-05-31T15:40:49.845Z,3.00
2019-05-31T15:43:17.150Z,2.60
2019-05-31T15:45:44.430Z,5.40
2019-05-31T15:48:11.760Z,2.77
2019-05-31T15:50:39.060Z,3.50
2019-05-31T15:53:19.026Z,2.57
2019-05-31T15:55:49.261Z,2.97
2019-05-31T15:58:04.322Z,5.03
2019-05-31T16:00:38.194Z,2.50
2019-05-31T16:03:06.324Z,3.27
2019-05-31T16:05:34.257Z,6.70
2019-05-31T16:08:02.466Z,5.20
2019-05-31T16:10:29.889Z,2.73
2019-05-31T16:12:58.612Z,3.30
2019-05-31T16:15:26.113Z,5.00
2019-05-31T16:17:53.429Z,3.63
2019-05-31T16:20:20.699Z,3.40
2019-05-31T16:22:47.969Z,3.43
2019-05-31T16:25:15.348Z,2.87
2019-05-31T16:27:42.626Z,8.33
2019-05-31T16:30:09.965Z,3.40
2019-05-31T16:32:37.262Z,5.93
2019-05-31T16:35:06.468Z,2.67
2019-05-31T16:37:33.922Z,3.27
2019-05-31T16:40:02.441Z,2.80
2019-05-31T16:42:29.836Z,3.73
2019-05-31T16:44:57.104Z,4.07
2019-05-31T16:47:24.394Z,2.97
2019-05-31T16:49:57.200Z,3.03
2019-05-31T16:52:20.720Z,2.87
2019-05-31T16:54:48.049Z,4.50
2019-05-31T16:57:15.321Z,5.43
2019-05-31T16:59:42.642Z,3.23
2019-05-31T17:02:09.906Z,4.90
2019-05-31T17:17:52.636Z,3.80
2019-05-31T17:20:19.908Z,4.80
2019-05-31T17:22:47.244Z,4.70
2019-05-31T17:25:14.708Z,3.30
2019-05-31T17:27:42.005Z,3.63
2019-05-31T17:30:11.007Z,3.50
2019-05-31T17:32:38.396Z,3.47
2019-05-31T17:35:07.043Z,4.60
2019-05-31T17:37:34.581Z,3.60
2019-05-31T17:40:01.853Z,3.37
2019-05-31T17:42:29.128Z,4.23
2019-05-31T17:44:56.505Z,3.60
2019-05-31T17:47:23.793Z,2.70
2019-05-31T17:49:51.169Z,3.67
2019-05-31T17:52:18.540Z,4.23
2019-05-31T17:54:57.382Z,5.80
2019-05-31T17:57:15.586Z,3.30
2019-05-31T17:59:43.103Z,3.30
2019-05-31T18:02:11.223Z,5.53
2019-05-31T18:04:38.584Z,3.90
2019-05-31T18:07:06.070Z,3.73
2019-05-31T18:09:33.426Z,3.50
2019-05-31T18:12:00.860Z,7.73
2019-05-31T18:14:28.217Z,4.03
2019-05-31T18:16:55.562Z,3.43
2019-05-31T18:19:22.830Z,5.50
2019-05-31T18:21:50.209Z,5.30
2019-05-31T18:24:17.729Z,3.13
2019-05-31T18:26:45.124Z,3.70
2019-05-31T18:29:12.452Z,3.80
2019-05-31T18:31:39.721Z,3.87
2019-05-31T18:34:08.169Z,4.70
2019-05-31T18:36:35.749Z,3.40
2019-05-31T18:39:04.949Z,3.03
2019-05-31T18:41:32.213Z,3.03
2019-05-31T18:43:59.549Z,3.57
2019-05-31T18:46:26.923Z,3.20
2019-05-31T18:48:54.261Z,3.53
2019-05-31T18:51:22.251Z,3.43
2019-05-31T18:53:49.596Z,5.10
2019-05-31T18:56:17.755Z,5.47
2019-05-31T18:58:45.116Z,3.90
2019-05-31T19:01:12.897Z,3.80
2019-05-31T19:03:40.457Z,3.80
2019-05-31T19:06:07.720Z,4.10
2019-05-31T19:08:35.057Z,4.30
2019-05-31T19:11:02.364Z,6.33
2019-05-31T19:13:29.709Z,4.47
2019-05-31T19:15:56.992Z,7.03
2019-05-31T19:18:24.304Z,4.13
2019-05-31T19:21:00.922Z,4.40
2019-05-31T19:23:21.922Z,3.87
2019-05-31T19:25:50.953Z,4.13
2019-05-31T19:28:19.847Z,4.07
2019-05-31T19:30:47.441Z,4.17
2019-05-31T19:33:16.334Z,4.03
2019-05-31T19:35:43.769Z,3.87
2019-05-31T19:38:12.038Z,4.10
2019-05-31T19:40:39.721Z,4.60
2019-05-31T19:43:06.997Z,4.23
2019-05-31T19:45:36.026Z,4.30
2019-05-31T19:48:04.136Z,3.70
2019-05-31T19:50:32.932Z,4.30
2019-05-31T19:53:00.513Z,4.73
2019-05-31T19:55:28.550Z,5.00
2019-05-31T19:57:55.880Z,4.13
2019-05-31T20:00:23.322Z,4.17
2019-05-31T20:02:50.609Z,7.53
2019-05-31T20:05:20.073Z,6.17
2019-05-31T20:07:47.049Z,4.37
2019-05-31T20:10:17.569Z,5.07
2019-05-31T20:12:43.690Z,5.53
2019-05-31T20:15:11.016Z,4.50
2019-05-31T20:17:38.280Z,5.90
2019-05-31T20:20:07.158Z,4.30
2019-05-31T20:22:34.460Z,4.40
2019-05-31T20:25:01.806Z,4.30
2019-05-31T20:32:27.342Z,4.47
2019-05-31T20:34:54.684Z,4.23
2019-05-31T20:37:25.322Z,4.47
2019-05-31T20:39:18.042Z,3.80
2019-05-31T20:39:51.782Z,8.63
2019-05-31T20:44:48.149Z,4.40
2019-05-31T20:47:15.512Z,4.17
2019-05-31T20:49:42.820Z,4.53
2019-05-31T20:52:10.254Z,4.37
2019-05-31T20:54:37.693Z,5.17
2019-05-31T20:57:04.972Z,4.60
2019-05-31T20:59:32.428Z,5.70
2019-05-31T21:01:59.944Z,4.20
2019-05-31T21:04:28.139Z,4.07
2019-05-31T21:06:56.252Z,4.00
2019-05-31T21:09:23.758Z,5.00
2019-05-31T21:11:51.073Z,5.20
2019-05-31T21:14:18.341Z,4.60
2019-05-31T21:16:45.629Z,4.97
2019-05-31T21:19:12.904Z,5.23
2019-05-31T21:21:40.256Z,5.20
2019-05-31T21:24:07.624Z,4.57
2019-05-31T21:26:34.897Z,4.63
2019-05-31T21:29:02.333Z,4.90
2019-05-31T21:31:29.709Z,5.40
2019-05-31T21:33:57.114Z,4.93
2019-05-31T21:36:25.710Z,4.50
2019-05-31T21:38:53.234Z,5.37
2019-05-31T21:41:20.500Z,4.60
2019-05-31T21:43:47.778Z,4.00
2019-05-31T21:46:15.248Z,4.63
2019-05-31T21:48:42.612Z,4.30
2019-05-31T21:51:14.483Z,5.50
2019-05-31T21:53:42.416Z,5.93
2019-05-31T21:56:09.728Z,5.10
2019-05-31T21:58:37.222Z,5.10
2019-05-31T22:01:05.117Z,5.20
2019-05-31T22:03:37.994Z,5.60
2019-05-31T22:06:01.746Z,8.93
2019-05-31T22:08:29.098Z,9.43
2019-05-31T22:10:56.365Z,5.33
2019-05-31T22:13:23.749Z,5.03
2019-05-31T22:15:51.194Z,5.50
2019-05-31T22:18:18.554Z,5.70
2019-05-31T22:20:45.893Z,5.93
2019-05-31T22:23:13.169Z,5.00
2019-05-31T22:25:40.439Z,5.30
2019-05-31T22:28:07.743Z,5.67
2019-05-31T22:30:39.638Z,6.30
2019-05-31T22:33:07.009Z,5.77
2019-05-31T22:35:35.717Z,5.90
2019-05-31T22:38:03.117Z,6.80
2019-05-31T22:40:30.387Z,5.90
2019-05-31T22:42:57.752Z,5.37
2019-05-31T22:45:25.028Z,5.20
2019-05-31T22:47:52.962Z,6.43
2019-05-31T22:50:20.337Z,4.67
2019-05-31T22:52:47.674Z,4.50
2019-05-31T22:55:14.997Z,4.40
2019-05-31T22:57:45.009Z,4.97
2019-05-31T23:00:11.540Z,4.80
2019-05-31T23:02:38.816Z,9.13
2019-05-31T23:05:06.657Z,4.10
2019-05-31T23:07:36.593Z,6.80
2019-05-31T23:10:03.727Z,4.17
2019-05-31T23:12:30.985Z,4.70
2019-05-31T23:14:58.249Z,5.40
2019-05-31T23:17:25.689Z,4.40
2019-05-31T23:19:52.961Z,4.23
2019-05-31T23:22:20.231Z,4.50
2019-05-31T23:24:47.982Z,4.33
2019-05-31T23:27:15.472Z,4.40
2019-05-31T23:29:56.991Z,4.60
2019-05-31T23:32:11.846Z,5.80
2019-05-31T23:34:40.278Z,4.83
2019-05-31T23:37:07.760Z,3.60
2019-05-31T23:39:35.744Z,7.43
2019-05-31T23:42:03.210Z,4.63
2019-05-31T23:44:30.554Z,4.80
2019-05-31T23:46:57.873Z,9.60
2019-05-31T23:49:25.137Z,4.30
2019-05-31T23:51:52.412Z,3.80
2019-05-31T23:54:19.722Z,4.90
2019-05-31T23:56:48.070Z,4.87
2019-05-31T23:59:15.577Z,5.20
